ID Time Temp Humidity Light PM2.5 PM10 Voltage Extra Firmware Position Fcnt TTN version Gateways Distance RSSI LSNR Radiosettings
2026-05-07 16:28:03 14.8125°C 75.6875% 3.39V v2 51.5724 / 4.79611 17005 ttn.v3 0.11km -55 13.25 867.7MHz, SF9BW125, 4/5CR
2026-05-07 16:12:26 15°C 72.9375% 3.39V v2 51.5724 / 4.79611 17004 ttn.v3 0.11km -55 8.75 868.5MHz, SF9BW125, 4/5CR
2026-05-07 15:56:48 15.25°C 74.4375% 3.39V v2 51.5724 / 4.79611 17003 ttn.v3 0.11km -53 8.25 867.5MHz, SF9BW125, 4/5CR
2026-05-07 15:41:11 15.5625°C 69.125% 3.39V v2 51.5724 / 4.79611 17002 ttn.v3 0.11km -55 12.75 868.3MHz, SF9BW125, 4/5CR
2026-05-07 15:25:33 15.8125°C 65.5% 3.39V v2 51.5724 / 4.79611 17001 ttn.v3 0.11km -55 13.5 867.3MHz, SF9BW125, 4/5CR
2026-05-07 15:09:56 15.375°C 66.5% 3.39V v2 51.5724 / 4.79611 17000 ttn.v3 0.11km -57 12.5 868.1MHz, SF9BW125, 4/5CR
2026-05-07 14:54:19 15.1875°C 68.5625% 3.39V v2 51.5724 / 4.79611 16999 ttn.v3 0.11km -53 13 867.1MHz, SF9BW125, 4/5CR
2026-05-07 14:38:41 15.3125°C 69.3125% 3.39V v2 51.5724 / 4.79611 16998 ttn.v3 0.11km -56 9.25 868.5MHz, SF9BW125, 4/5CR
2026-05-07 14:23:04 15.3125°C 64.5625% 3.39V v2 51.5724 / 4.79611 16997 ttn.v3 0.11km -55 12.25 867.9MHz, SF9BW125, 4/5CR
2026-05-07 14:07:27 15.1875°C 71.3125% 3.39V v2 51.5724 / 4.79611 16996 ttn.v3 0.11km -57 12 868.3MHz, SF9BW125, 4/5CR
2026-05-07 13:51:50 14.875°C 78.6875% 3.39V v2 51.5724 / 4.79611 16995 ttn.v3 0.11km -53 12.75 867.7MHz, SF9BW125, 4/5CR
2026-05-07 13:36:13 14.5°C 79.125% 3.39V v2 51.5724 / 4.79611 16994 ttn.v3 0.11km -56 12.5 868.1MHz, SF9BW125, 4/5CR
2026-05-07 13:20:36 14.5°C 89% 3.39V v2 51.5724 / 4.79611 16993 ttn.v3 0.11km -53 8.25 867.5MHz, SF9BW125, 4/5CR
2026-05-07 13:06:06 14.0625°C 90.9375% 3.39V v2 51.5724 / 4.79611 16992 ttn.v3 0.11km -56 6.75 868.5MHz, SF12BW125, 4/5CR
2026-05-07 12:49:25 13.625°C 91.8125% 3.39V v2 51.5723 / 4.79614 16991 ttn.v3 0.105km -50 11.5 867.3MHz, SF9BW125, 4/5CR
2026-05-07 12:33:48 13.5°C 93.375% 3.39V v2 51.5723 / 4.79614 16990 ttn.v3 0.105km -55 13 868.3MHz, SF9BW125, 4/5CR
2026-05-07 12:18:12 13.25°C 96.875% 3.39V v2 51.5723 / 4.79614 16989 ttn.v3 0.105km -53 13 867.1MHz, SF9BW125, 4/5CR
2026-05-07 12:02:36 12.9375°C 97% 3.39V v2 51.5723 / 4.79614 16988 ttn.v3 0.105km -53 12.5 868.1MHz, SF9BW125, 4/5CR
2026-05-07 11:46:59 12.9375°C 96.1875% 3.39V v2 51.5723 / 4.79614 16987 ttn.v3 0.105km -57 12.5 867.9MHz, SF9BW125, 4/5CR
2026-05-07 11:31:23 12.625°C 97.4375% 3.39V v2 51.5723 / 4.79614 16986 ttn.v3 0.105km -59 9.5 868.5MHz, SF9BW125, 4/5CR
2026-05-07 11:15:47 12.5°C 98.125% 3.39V v2 51.5723 / 4.79614 16985 ttn.v3 0.105km -53 12 867.7MHz, SF9BW125, 4/5CR
2026-05-07 11:00:11 12.125°C 70.25% 3.39V v2 51.5723 / 4.79614 16984 ttn.v3 0.105km -61 12.75 868.3MHz, SF9BW125, 4/5CR
2026-05-07 10:44:35 12°C 27.375% 3.39V v2 51.5723 / 4.79614 16983 ttn.v3 0.105km -51 9.25 867.5MHz, SF9BW125, 4/5CR
2026-05-07 10:29:00 11.6875°C 22.5% 3.39V v2 51.5723 / 4.79614 16982 ttn.v3 0.105km -59 12.75 868.1MHz, SF9BW125, 4/5CR
2026-05-07 10:13:24 11.375°C 21.8125% 3.39V v2 51.5723 / 4.79614 16981 ttn.v3 0.105km -51 12.75 867.3MHz, SF9BW125, 4/5CR
2026-05-07 09:57:49 11.0625°C 22.0625% 3.39V v2 51.5723 / 4.79614 16980 ttn.v3 0.105km -56 8.5 868.5MHz, SF9BW125, 4/5CR
2026-05-07 09:42:13 10.75°C 19% 3.39V v2 51.5723 / 4.79614 16979 ttn.v3 0.105km -51 12.75 867.1MHz, SF9BW125, 4/5CR
2026-05-07 09:26:38 10.5°C 20.0625% 3.39V v2 51.5723 / 4.79614 16978 ttn.v3 0.105km -56 12.5 868.3MHz, SF9BW125, 4/5CR
2026-05-07 09:11:03 10°C 16.375% 3.39V v2 51.5723 / 4.79614 16977 ttn.v3 0.105km -51 12.25 867.9MHz, SF9BW125, 4/5CR
2026-05-07 08:55:28 9.6875°C 12.75% 3.39V v2 51.5723 / 4.79614 16976 ttn.v3 0.105km -69 12 868.1MHz, SF9BW125, 4/5CR
2026-05-07 08:39:54 9.4375°C 10.0625% 3.39V v2 51.5723 / 4.79614 16975 ttn.v3 0.105km -59 12 867.7MHz, SF9BW125, 4/5CR
2026-05-07 08:24:19 9.375°C 7.375% 3.39V v2 51.5723 / 4.79614 16974 ttn.v3 0.105km -61 9.75 868.5MHz, SF9BW125, 4/5CR
2026-05-07 08:08:44 9.25°C 8.75% 3.39V v2 51.5723 / 4.79614 16973 ttn.v3 0.105km -55 9 867.5MHz, SF9BW125, 4/5CR
2026-05-07 07:53:10 9.125°C 7.5625% 3.39V v2 51.5723 / 4.79614 16972 ttn.v3 0.105km -72 11.75 868.3MHz, SF9BW125, 4/5CR
2026-05-07 07:37:35 9°C 7.5625% 3.39V v2 51.5723 / 4.79614 16971 ttn.v3 0.105km -50 12.25 867.3MHz, SF9BW125, 4/5CR
2026-05-07 07:22:00 8.75°C 8.875% 3.39V v2 51.5723 / 4.79614 16970 ttn.v3 0.105km -56 12 868.1MHz, SF9BW125, 4/5CR
2026-05-07 07:06:26 8.625°C 8.5% 3.39V v2 51.5723 / 4.79614 16969 ttn.v3 0.105km -51 11.75 867.1MHz, SF9BW125, 4/5CR
2026-05-07 06:50:51 8.5625°C 9.75% 3.39V v2 51.5723 / 4.79614 16968 ttn.v3 0.105km -53 9.5 868.5MHz, SF9BW125, 4/5CR
2026-05-07 06:35:17 8.5625°C 8.3125% 3.39V v2 51.5723 / 4.79614 16967 ttn.v3 0.105km -55 13.25 867.9MHz, SF9BW125, 4/5CR
2026-05-07 06:19:42 8.5625°C 8.6875% 3.39V v2 51.5723 / 4.79614 16966 ttn.v3 0.105km -57 12.5 868.3MHz, SF9BW125, 4/5CR
2026-05-07 06:04:08 8.625°C 5.375% 3.39V v2 51.5723 / 4.79614 16965 ttn.v3 0.105km -55 13.5 867.7MHz, SF9BW125, 4/5CR
2026-05-07 05:48:33 8.8125°C 4.1875% 3.39V v2 51.5723 / 4.79614 16964 ttn.v3 0.105km -56 13 868.1MHz, SF9BW125, 4/5CR
2026-05-07 05:32:59 8.875°C 4.625% 3.39V v2 51.5723 / 4.79614 16963 ttn.v3 0.105km -53 8.75 867.5MHz, SF9BW125, 4/5CR
2026-05-07 05:17:24 9.125°C 4.25% 3.39V v2 51.5723 / 4.79614 16962 ttn.v3 0.105km -59 9.25 868.5MHz, SF9BW125, 4/5CR
2026-05-07 05:01:49 9.25°C 4.5625% 3.39V v2 51.5723 / 4.79614 16961 ttn.v3 0.105km -55 13.25 867.3MHz, SF9BW125, 4/5CR
2026-05-07 04:46:14 9.5°C 4.5% 3.39V v2 51.5723 / 4.79614 16960 ttn.v3 0.105km -61 12.75 868.3MHz, SF9BW125, 4/5CR
2026-05-07 04:30:39 9.625°C 5.8125% 3.39V v2 51.5723 / 4.79614 16959 ttn.v3 0.105km -57 13.5 867.1MHz, SF9BW125, 4/5CR
2026-05-07 04:15:04 9.6875°C 7.125% 3.39V v2 51.5723 / 4.79614 16958 ttn.v3 0.105km -57 11.75 868.1MHz, SF9BW125, 4/5CR
2026-05-07 03:59:29 9.8125°C 7.625% 3.39V v2 51.5723 / 4.79614 16957 ttn.v3 0.105km -55 14.25 867.9MHz, SF9BW125, 4/5CR
2026-05-07 03:43:54 10°C 7.8125% 3.39V v2 51.5723 / 4.79614 16956 ttn.v3 0.105km -51 9 868.5MHz, SF9BW125, 4/5CR
2026-05-07 03:28:19 10.125°C 9.1875% 3.39V v2 51.5723 / 4.79614 16955 ttn.v3 0.105km -50 12.5 867.7MHz, SF9BW125, 4/5CR
2026-05-07 03:12:44 10.25°C 10.625% 3.39V v2 51.5723 / 4.79614 16954 ttn.v3 0.105km -53 12.75 868.3MHz, SF9BW125, 4/5CR
2026-05-07 02:57:09 10.3125°C 10.6875% 3.39V v2 51.5723 / 4.79614 16953 ttn.v3 0.105km -51 8.5 867.5MHz, SF9BW125, 4/5CR
2026-05-07 02:41:34 10.375°C 11.4375% 3.39V v2 51.5723 / 4.79614 16952 ttn.v3 0.105km -51 11.75 868.1MHz, SF9BW125, 4/5CR
2026-05-07 02:25:58 10.4375°C 7% 3.39V v2 51.5723 / 4.79614 16951 ttn.v3 0.105km -51 12.5 867.3MHz, SF9BW125, 4/5CR
2026-05-07 02:10:23 10.5°C 7% 3.39V v2 51.5723 / 4.79614 16950 ttn.v3 0.105km -55 8.75 868.5MHz, SF9BW125, 4/5CR
2026-05-07 01:54:48 10.5°C 3.6875% 3.39V v2 51.5723 / 4.79614 16949 ttn.v3 0.105km -50 12 867.1MHz, SF9BW125, 4/5CR
2026-05-07 01:39:13 10.4375°C 1.3125% 3.39V v2 51.5723 / 4.79614 16948 ttn.v3 0.105km -55 13.5 868.3MHz, SF9BW125, 4/5CR
2026-05-07 01:23:38 10.3125°C -1.8125% 3.39V v2 51.5723 / 4.79614 16947 ttn.v3 0.105km -48 11.75 867.9MHz, SF9BW125, 4/5CR
2026-05-07 01:08:02 10.1875°C -4.625% 3.39V v2 51.5723 / 4.79614 16946 ttn.v3 0.105km -53 13.25 868.1MHz, SF9BW125, 4/5CR
2026-05-07 00:52:27 10.25°C -5.8125% 3.39V v2 51.5723 / 4.79614 16945 ttn.v3 0.105km -51 12.75 867.7MHz, SF9BW125, 4/5CR
2026-05-07 00:36:52 10.5°C -2.3125% 3.39V v2 51.5723 / 4.79614 16944 ttn.v3 0.105km -49 8.5 868.5MHz, SF9BW125, 4/5CR
2026-05-07 00:21:16 10.75°C 3.4375% 3.39V v2 51.5723 / 4.79614 16943 ttn.v3 0.105km -50 10 867.5MHz, SF9BW125, 4/5CR
2026-05-07 00:05:41 10.9375°C 93.1875% 3.39V v2 51.5723 / 4.79614 16942 ttn.v3 0.105km -55 13.25 868.3MHz, SF9BW125, 4/5CR
2026-05-06 23:50:06 11°C 96% 3.39V v2 51.5723 / 4.79614 16941 ttn.v3 0.105km -51 13 867.3MHz, SF9BW125, 4/5CR
2026-05-06 23:34:30 11°C 94.125% 3.39V v2 51.5723 / 4.79614 16940 ttn.v3 0.105km -53 13.25 868.1MHz, SF9BW125, 4/5CR
2026-05-06 23:18:55 11.0625°C 97.3125% 3.39V v2 51.5723 / 4.79614 16939 ttn.v3 0.105km -51 12.75 867.1MHz, SF9BW125, 4/5CR
2026-05-06 23:03:19 11.0625°C 99% 3.39V v2 51.5723 / 4.79614 16938 ttn.v3 0.105km -53 9.5 868.5MHz, SF9BW125, 4/5CR
2026-05-06 22:47:44 11.125°C 98.75% 3.39V v2 51.5723 / 4.79614 16937 ttn.v3 0.105km -53 13.25 867.9MHz, SF9BW125, 4/5CR
2026-05-06 22:32:08 11.1875°C 99.375% 3.39V v2 51.5723 / 4.79614 16936 ttn.v3 0.105km -55 13.75 868.3MHz, SF9BW125, 4/5CR
2026-05-06 22:16:33 11.1875°C 97.75% 3.39V v2 51.5723 / 4.79614 16935 ttn.v3 0.105km -51 13 867.7MHz, SF9BW125, 4/5CR
2026-05-06 22:00:57 11.1875°C 98.125% 3.39V v2 51.5723 / 4.79614 16934 ttn.v3 0.105km -53 12.75 868.1MHz, SF9BW125, 4/5CR
2026-05-06 21:45:22 11.25°C 98.75% 3.39V v2 51.5723 / 4.79614 16933 ttn.v3 0.105km -53 8.5 867.5MHz, SF9BW125, 4/5CR
2026-05-06 21:29:46 11.25°C 98.5% 3.39V v2 51.5723 / 4.79614 16932 ttn.v3 0.105km -48 9.75 868.5MHz, SF9BW125, 4/5CR
2026-05-06 21:14:11 11.3125°C 98.125% 3.39V v2 51.5723 / 4.79614 16931 ttn.v3 0.105km -51 12.25 867.3MHz, SF9BW125, 4/5CR
2026-05-06 20:58:35 11.4375°C 94.75% 3.39V v2 51.5723 / 4.79614 16930 ttn.v3 0.105km -53 12.75 868.3MHz, SF9BW125, 4/5CR
2026-05-06 20:43:00 11.5°C 95.1875% 3.39V v2 51.5723 / 4.79614 16929 ttn.v3 0.105km -55 14 867.1MHz, SF9BW125, 4/5CR
2026-05-06 20:27:24 11.5625°C 96.1875% 3.39V v2 51.5723 / 4.79614 16928 ttn.v3 0.105km -55 13.5 868.1MHz, SF9BW125, 4/5CR
2026-05-06 20:11:48 11.75°C 94.25% 3.39V v2 51.5723 / 4.79614 16927 ttn.v3 0.105km -53 13.75 867.9MHz, SF9BW125, 4/5CR
2026-05-06 19:56:12 11.75°C 92.25% 3.39V v2 51.5723 / 4.79614 16926 ttn.v3 0.105km -50 9 868.5MHz, SF9BW125, 4/5CR
2026-05-06 19:40:37 11.8125°C 91.4375% 3.39V v2 51.5723 / 4.79614 16925 ttn.v3 0.105km -50 13 867.7MHz, SF9BW125, 4/5CR
2026-05-06 19:25:01 11.8125°C 90.6875% 3.39V v2 51.5723 / 4.79614 16924 ttn.v3 0.105km -51 11.75 868.3MHz, SF9BW125, 4/5CR
2026-05-06 19:09:25 11.9375°C 91.3125% 3.39V v2 51.5723 / 4.79614 16923 ttn.v3 0.105km -49 8 867.5MHz, SF9BW125, 4/5CR
2026-05-06 18:53:49 12.0625°C 90.875% 3.39V v2 51.5723 / 4.79614 16922 ttn.v3 0.105km -55 12 868.1MHz, SF9BW125, 4/5CR
2026-05-06 18:38:13 12.1875°C 85% 3.39V v2 51.5723 / 4.79614 16921 ttn.v3 0.105km -47 13 867.3MHz, SF9BW125, 4/5CR
2026-05-06 18:22:37 12.1875°C 83.75% 3.39V v2 51.5723 / 4.79614 16920 ttn.v3 0.105km -44 9 868.5MHz, SF9BW125, 4/5CR
2026-05-06 18:07:01 12.3125°C 86.9375% 3.39V v2 51.5723 / 4.79614 16919 ttn.v3 0.105km -41 11.75 867.1MHz, SF9BW125, 4/5CR
2026-05-06 17:51:25 12.375°C 83.125% 3.39V v2 51.5723 / 4.79614 16918 ttn.v3 0.105km -44 12.25 868.3MHz, SF9BW125, 4/5CR
2026-05-06 17:35:49 12.4375°C 80.125% 3.39V v2 51.5723 / 4.79614 16917 ttn.v3 0.105km -49 13.75 867.9MHz, SF9BW125, 4/5CR
2026-05-06 17:20:13 12.625°C 80.6875% 3.39V v2 51.5723 / 4.79614 16916 ttn.v3 0.105km -49 12.75 868.1MHz, SF9BW125, 4/5CR
2026-05-06 17:04:37 12.9375°C 78.5% 3.39V v2 51.5723 / 4.79614 16915 ttn.v3 0.105km -45 13 867.7MHz, SF9BW125, 4/5CR
2026-05-06 16:49:00 12.75°C 77.3125% 3.39V v2 51.5723 / 4.79614 16914 ttn.v3 0.105km -43 9.25 868.5MHz, SF9BW125, 4/5CR
2026-05-06 16:33:24 13.0625°C 78.75% 3.39V v2 51.5723 / 4.79614 16913 ttn.v3 0.105km -42 9.5 867.5MHz, SF9BW125, 4/5CR
2026-05-06 16:17:48 13.1875°C 74.5625% 3.39V v2 51.5723 / 4.79614 16912 ttn.v3 0.105km -43 12 868.3MHz, SF9BW125, 4/5CR
2026-05-06 16:02:20 13°C 70.8125% 3.39V v2 51.5723 / 4.79614 16911 ttn.v3 0.105km -45 12.75 867.3MHz, SF9BW125, 4/5CR
2026-05-06 15:46:43 12.9375°C 74.0625% 3.39V v2 51.5723 / 4.79614 16910 ttn.v3 0.105km -49 13.5 868.1MHz, SF9BW125, 4/5CR
2026-05-06 15:31:07 13.0625°C 83.375% 3.39V v2 51.5723 / 4.79614 16909 ttn.v3 0.105km -44 12 867.1MHz, SF9BW125, 4/5CR
2026-05-06 15:15:31 13.375°C 89.125% 3.39V v2 51.5723 / 4.79614 16908 ttn.v3 0.105km -45 7.75 868.5MHz, SF9BW125, 4/5CR
2026-05-06 14:59:54 13.4375°C 88.625% 3.39V v2 51.5723 / 4.79614 16907 ttn.v3 0.105km -45 12 867.9MHz, SF9BW125, 4/5CR
2026-05-06 14:44:18 13.75°C 86.75% 3.39V v2 51.5723 / 4.79614 16906 ttn.v3 0.105km -43 12.5 868.3MHz, SF9BW125, 4/5CR
2026-05-06 14:28:41 13.8125°C 89.4375% 3.39V v2 51.5723 / 4.79614 16905 ttn.v3 0.105km -43 12.25 867.7MHz, SF9BW125, 4/5CR
2026-05-06 14:13:04 14.1875°C 82.375% 3.39V v2 51.5723 / 4.79614 16904 ttn.v3 0.105km -49 12.75 868.1MHz, SF9BW125, 4/5CR
2026-05-06 13:57:27 14.5625°C 71.75% 3.39V v2 51.5723 / 4.79614 16903 ttn.v3 0.105km -45 9 867.5MHz, SF9BW125, 4/5CR
2026-05-06 13:41:50 14.75°C 69.25% 3.39V v2 51.5723 / 4.79614 16902 ttn.v3 0.105km -42 9.5 868.5MHz, SF9BW125, 4/5CR
2026-05-06 13:26:13 14.8125°C 74.25% 3.39V v2 51.5723 / 4.79614 16901 ttn.v3 0.105km -45 13.5 867.3MHz, SF9BW125, 4/5CR
2026-05-06 13:10:36 14.4375°C 72.5% 3.39V v2 51.5723 / 4.79614 16900 ttn.v3 0.105km -45 12 868.3MHz, SF9BW125, 4/5CR
2026-05-06 12:55:00 14.125°C 82.25% 3.39V v2 51.5723 / 4.79614 16899 ttn.v3 0.105km -47 13.5 867.1MHz, SF9BW125, 4/5CR
2026-05-06 12:39:23 13.8125°C 86.3125% 3.39V v2 51.5723 / 4.79614 16898 ttn.v3 0.105km -47 12.75 868.1MHz, SF9BW125, 4/5CR
2026-05-06 12:23:46 13.6875°C 24.625% 3.39V v2 51.5723 / 4.79614 16897 ttn.v3 0.105km -45 12.75 867.9MHz, SF9BW125, 4/5CR
2026-05-06 12:09:11 13.5625°C 25.4375% 3.39V v2 51.5723 / 4.79614 16896 ttn.v3 0.105km -43 8.5 868.5MHz, SF12BW125, 4/5CR
2026-05-06 11:52:36 13.375°C 26.6875% 3.39V v2 No position 16895 ttn.v3 - -45 12 867.7MHz, SF9BW125, 4/5CR
2026-05-06 11:36:59 13.1875°C 24.875% 3.39V v2 No position 16894 ttn.v3 - -49 13.75 868.3MHz, SF9BW125, 4/5CR
2026-05-06 11:21:23 13°C 18% 3.39V v2 No position 16893 ttn.v3 - -41 9.5 867.5MHz, SF9BW125, 4/5CR
2026-05-06 11:05:47 12.6875°C 8.875% 3.39V v2 No position 16892 ttn.v3 - -45 12.5 868.1MHz, SF9BW125, 4/5CR
2026-05-06 10:50:11 12.375°C 0.75% 3.39V v2 No position 16891 ttn.v3 - -43 12.75 867.3MHz, SF9BW125, 4/5CR
2026-05-06 10:34:35 11.9375°C -4.0625% 3.39V v2 No position 16890 ttn.v3 - -43 9.75 868.5MHz, SF9BW125, 4/5CR
2026-05-06 10:18:59 11.625°C -4.5% 3.39V v2 No position 16889 ttn.v3 - -43 12 867.1MHz, SF9BW125, 4/5CR
2026-05-06 10:03:24 11.4375°C 117.312% 3.39V v2 No position 16888 ttn.v3 - -47 12.5 868.3MHz, SF9BW125, 4/5CR
2026-05-06 09:47:48 11.25°C 117.25% 3.39V v2 No position 16887 ttn.v3 - -45 11.75 867.9MHz, SF9BW125, 4/5CR
2026-05-06 09:32:13 11.1875°C 115.875% 3.39V v2 No position 16886 ttn.v3 - -45 11.5 868.1MHz, SF9BW125, 4/5CR
2026-05-06 09:16:37 10.875°C 115.312% 3.39V v2 No position 16885 ttn.v3 - -44 12.5 867.7MHz, SF9BW125, 4/5CR
2026-05-06 09:01:02 10.6875°C 114.062% 3.39V v2 No position 16884 ttn.v3 - -45 8.5 868.5MHz, SF9BW125, 4/5CR
2026-05-06 08:29:52 10.25°C 112.875% 3.39V v2 No position 16882 ttn.v3 - -43 12.5 868.3MHz, SF9BW125, 4/5CR
2026-05-06 08:14:17 10.0625°C 112.875% 3.39V v2 No position 16881 ttn.v3 - -45 12.75 867.3MHz, SF9BW125, 4/5CR
2026-05-06 07:58:42 9.875°C 114.188% 3.39V v2 No position 16880 ttn.v3 - -47 14.5 868.1MHz, SF9BW125, 4/5CR
2026-05-06 07:43:07 9.6875°C 115.625% 3.39V v2 No position 16879 ttn.v3 - -42 12.75 867.1MHz, SF9BW125, 4/5CR
2026-05-06 07:27:32 9.5625°C 115.375% 3.39V v2 No position 16878 ttn.v3 - -47 8.75 868.5MHz, SF9BW125, 4/5CR
2026-05-06 07:11:57 9.4375°C 115.062% 3.39V v2 No position 16877 ttn.v3 - -45 12 867.9MHz, SF9BW125, 4/5CR
2026-05-06 06:56:22 9.375°C 114.625% 3.39V v2 No position 16876 ttn.v3 - -44 11.75 868.3MHz, SF9BW125, 4/5CR
2026-05-06 06:40:48 9.3125°C 114% 3.39V v2 No position 16875 ttn.v3 - -43 13.25 867.7MHz, SF9BW125, 4/5CR
2026-05-06 06:25:13 9.1875°C 113.688% 3.39V v2 No position 16874 ttn.v3 - -45 13 868.1MHz, SF9BW125, 4/5CR
2026-05-06 06:09:38 9°C 113.188% 3.39V v2 No position 16873 ttn.v3 - -41 9.25 867.5MHz, SF9BW125, 4/5CR
2026-05-06 05:54:04 8.9375°C 113.312% 3.39V v2 No position 16872 ttn.v3 - -42 9.75 868.5MHz, SF9BW125, 4/5CR
2026-05-06 05:38:29 9.0625°C 113.938% 3.39V v2 No position 16871 ttn.v3 - -39 12 867.3MHz, SF9BW125, 4/5CR
2026-05-06 05:22:55 9.125°C 114.438% 3.39V v2 No position 16870 ttn.v3 - -42 12.5 868.3MHz, SF9BW125, 4/5CR
2026-05-06 05:07:20 9.25°C 115% 3.39V v2 No position 16869 ttn.v3 - -45 13.25 867.1MHz, SF9BW125, 4/5CR
2026-05-06 04:51:45 9.375°C 116.625% 3.39V v2 No position 16868 ttn.v3 - -44 12.5 868.1MHz, SF9BW125, 4/5CR
2026-05-06 04:36:10 9.6875°C -4.125% 3.39V v2 No position 16867 ttn.v3 - -45 13.25 867.9MHz, SF9BW125, 4/5CR
2026-05-06 04:20:35 9.75°C -4.625% 3.39V v2 No position 16866 ttn.v3 - -42 9.25 868.5MHz, SF9BW125, 4/5CR
2026-05-06 04:05:00 9.6875°C -5.0625% 3.39V v2 No position 16865 ttn.v3 - -39 12.5 867.7MHz, SF9BW125, 4/5CR
2026-05-06 03:49:25 9.6875°C -4.4375% 3.39V v2 No position 16864 ttn.v3 - -42 12.5 868.3MHz, SF9BW125, 4/5CR
2026-05-06 03:33:51 9.75°C -3.25% 3.39V v2 No position 16863 ttn.v3 - -43 8.5 867.5MHz, SF9BW125, 4/5CR
2026-05-06 03:18:16 9.8125°C -2.8125% 3.39V v2 No position 16862 ttn.v3 - -42 12.25 868.1MHz, SF9BW125, 4/5CR
2026-05-06 03:02:41 9.9375°C -0.8125% 3.39V v2 No position 16861 ttn.v3 - -41 12.75 867.3MHz, SF9BW125, 4/5CR
2026-05-06 02:47:06 9.9375°C 0.125% 3.39V v2 No position 16860 ttn.v3 - -45 8.5 868.5MHz, SF9BW125, 4/5CR
2026-05-06 02:31:31 9.9375°C 0.9375% 3.39V v2 No position 16859 ttn.v3 - -44 12.25 867.1MHz, SF9BW125, 4/5CR
2026-05-06 02:15:56 10°C 2.4375% 3.39V v2 No position 16858 ttn.v3 - -45 12.75 868.3MHz, SF9BW125, 4/5CR
2026-05-06 02:00:20 10.0625°C 2.875% 3.39V v2 No position 16857 ttn.v3 - -43 12.5 867.9MHz, SF9BW125, 4/5CR
2026-05-06 01:44:45 10.0625°C 4.5% 3.39V v2 No position 16856 ttn.v3 - -43 12.75 868.1MHz, SF9BW125, 4/5CR
2026-05-06 01:29:10 10.125°C 5.25% 3.39V v2 No position 16855 ttn.v3 - -39 12.25 867.7MHz, SF9BW125, 4/5CR
2026-05-06 01:13:35 10.1875°C 7.0625% 3.39V v2 No position 16854 ttn.v3 - -45 9.5 868.5MHz, SF9BW125, 4/5CR
2026-05-06 00:58:00 10.25°C 6.125% 3.39V v2 No position 16853 ttn.v3 - -41 9.5 867.5MHz, SF9BW125, 4/5CR
2026-05-06 00:42:25 10.375°C 6.375% 3.39V v2 No position 16852 ttn.v3 - -45 13.5 868.3MHz, SF9BW125, 4/5CR
2026-05-06 00:26:50 10.4375°C 3.3125% 3.39V v2 No position 16851 ttn.v3 - -43 12.25 867.3MHz, SF9BW125, 4/5CR
2026-05-06 00:11:14 10.5625°C 4.1875% 3.39V v2 No position 16850 ttn.v3 - -47 12.25 868.1MHz, SF9BW125, 4/5CR
2026-05-05 23:55:39 10.625°C 2.25% 3.39V v2 No position 16849 ttn.v3 - -44 12.5 867.1MHz, SF9BW125, 4/5CR
2026-05-05 23:40:04 10.6875°C 1.1875% 3.39V v2 No position 16848 ttn.v3 - -44 9.25 868.5MHz, SF9BW125, 4/5CR
2026-05-05 23:24:28 10.75°C 0.375% 3.39V v2 No position 16847 ttn.v3 - -47 11.75 867.9MHz, SF9BW125, 4/5CR
2026-05-05 23:08:53 10.875°C -0.3125% 3.39V v2 No position 16846 ttn.v3 - -43 12 868.3MHz, SF9BW125, 4/5CR
2026-05-05 22:53:18 10.9375°C 0.3125% 3.39V v2 No position 16845 ttn.v3 - -43 11.75 867.7MHz, SF9BW125, 4/5CR
2026-05-05 22:37:42 10.9375°C -0.4375% 3.39V v2 No position 16844 ttn.v3 - -49 13.75 868.1MHz, SF9BW125, 4/5CR
2026-05-05 22:22:07 11.125°C 1.125% 3.39V v2 No position 16843 ttn.v3 - -43 9 867.5MHz, SF9BW125, 4/5CR
2026-05-05 22:06:31 11.25°C 0.9375% 3.39V v2 No position 16842 ttn.v3 - -47 8 868.5MHz, SF9BW125, 4/5CR
2026-05-05 21:50:56 11.3125°C 1.8125% 3.39V v2 No position 16841 ttn.v3 - -43 12.5 867.3MHz, SF9BW125, 4/5CR
2026-05-05 21:35:20 11.5°C 2.9375% 3.39V v2 No position 16840 ttn.v3 - -47 12.5 868.3MHz, SF9BW125, 4/5CR
2026-05-05 21:19:44 11.75°C 4.25% 3.39V v2 No position 16839 ttn.v3 - -45 13.5 867.1MHz, SF9BW125, 4/5CR
2026-05-05 21:04:08 11.875°C 5.375% 3.39V v2 No position 16838 ttn.v3 - -45 12.75 868.1MHz, SF9BW125, 4/5CR
2026-05-05 20:48:33 12.0625°C 5.625% 3.39V v2 No position 16837 ttn.v3 - -45 12.25 867.9MHz, SF9BW125, 4/5CR
2026-05-05 20:32:57 12.3125°C 7.625% 3.39V v2 No position 16836 ttn.v3 - -47 9 868.5MHz, SF9BW125, 4/5CR
2026-05-05 20:17:21 12.5°C 9.0625% 3.39V v2 No position 16835 ttn.v3 - -45 13.5 867.7MHz, SF9BW125, 4/5CR
2026-05-05 20:01:44 12.8125°C 8.4375% 3.39V v2 No position 16834 ttn.v3 - -47 13 868.3MHz, SF9BW125, 4/5CR
2026-05-05 19:46:08 13.125°C 4.125% 3.39V v2 No position 16833 ttn.v3 - -41 9.75 867.5MHz, SF9BW125, 4/5CR
2026-05-05 19:30:32 13.25°C -1.9375% 3.39V v2 No position 16832 ttn.v3 - -47 13.75 868.1MHz, SF9BW125, 4/5CR
2026-05-05 19:14:55 13.25°C -3.625% 3.39V v2 No position 16831 ttn.v3 - -43 13 867.3MHz, SF9BW125, 4/5CR
2026-05-05 18:59:19 13.3125°C -2.75% 3.39V v2 No position 16830 ttn.v3 - -47 8.75 868.5MHz, SF9BW125, 4/5CR
2026-05-05 18:43:43 13.3125°C -3.25% 3.39V v2 No position 16829 ttn.v3 - -45 12.25 867.1MHz, SF9BW125, 4/5CR
2026-05-05 18:28:06 13.4375°C -2.6875% 3.39V v2 No position 16828 ttn.v3 - -44 12 868.3MHz, SF9BW125, 4/5CR
2026-05-05 18:12:30 13.875°C -0.8125% 3.39V v2 No position 16827 ttn.v3 - -47 12.25 867.9MHz, SF9BW125, 4/5CR
2026-05-05 17:56:53 14.125°C 5.25% 3.39V v2 No position 16826 ttn.v3 - -49 14.5 868.1MHz, SF9BW125, 4/5CR
2026-05-05 17:41:16 14.3125°C 1.125% 3.39V v2 No position 16825 ttn.v3 - -43 12 867.7MHz, SF9BW125, 4/5CR
2026-05-05 17:25:39 14°C 0.75% 3.39V v2 No position 16824 ttn.v3 - -45 9.25 868.5MHz, SF9BW125, 4/5CR
2026-05-05 17:10:03 13.75°C 0.4375% 3.39V v2 No position 16823 ttn.v3 - -41 8.75 867.5MHz, SF9BW125, 4/5CR
2026-05-05 16:54:26 13.125°C -1.875% 3.39V v2 No position 16822 ttn.v3 - -43 12.25 868.3MHz, SF9BW125, 4/5CR
2026-05-05 16:38:50 12.5625°C -5.375% 3.39V v2 No position 16821 ttn.v3 - -45 13.25 867.3MHz, SF9BW125, 4/5CR
2026-05-05 16:23:14 12.125°C 117.812% 3.39V v2 No position 16820 ttn.v3 - -47 13.5 868.1MHz, SF9BW125, 4/5CR
2026-05-05 16:07:38 12.375°C 117.812% 3.39V v2 No position 16819 ttn.v3 - -41 12.5 867.1MHz, SF9BW125, 4/5CR
2026-05-05 15:52:02 12.5625°C 118.062% 3.39V v2 No position 16818 ttn.v3 - -39 10.25 868.5MHz, SF9BW125, 4/5CR
2026-05-05 15:36:26 12.5625°C 117.625% 3.39V v2 No position 16817 ttn.v3 - -45 12.5 867.9MHz, SF9BW125, 4/5CR
2026-05-05 15:20:50 12.5°C 117.188% 3.39V v2 No position 16816 ttn.v3 - -43 12 868.3MHz, SF9BW125, 4/5CR
2026-05-05 15:05:14 12.625°C 118.812% 3.39V v2 No position 16815 ttn.v3 - -44 13.25 867.7MHz, SF9BW125, 4/5CR
2026-05-05 14:49:38 12.125°C 113.562% 3.39V v2 No position 16814 ttn.v3 - -47 13.75 868.1MHz, SF9BW125, 4/5CR
2026-05-05 14:34:02 12°C 113% 3.39V v2 No position 16813 ttn.v3 - -41 9 867.5MHz, SF9BW125, 4/5CR
2026-05-05 14:18:26 11.75°C 111.75% 3.39V v2 No position 16812 ttn.v3 - -43 9.25 868.5MHz, SF9BW125, 4/5CR
2026-05-05 14:02:51 11.6875°C 112.312% 3.39V v2 No position 16811 ttn.v3 - -45 12.25 867.3MHz, SF9BW125, 4/5CR
2026-05-05 13:47:15 11.6875°C 111.75% 3.39V v2 No position 16810 ttn.v3 - -44 13.25 868.3MHz, SF9BW125, 4/5CR
2026-05-05 13:31:39 11.5°C 111.625% 3.39V v2 No position 16809 ttn.v3 - -45 13 867.1MHz, SF9BW125, 4/5CR
2026-05-05 13:16:04 11.4375°C 111% 3.39V v2 No position 16808 ttn.v3 - -47 13.75 868.1MHz, SF9BW125, 4/5CR
2026-05-05 13:00:28 11.3125°C 110.438% 3.39V v2 No position 16807 ttn.v3 - -44 11.75 867.9MHz, SF9BW125, 4/5CR
2026-05-05 12:44:52 11.25°C 110.875% 3.39V v2 No position 16806 ttn.v3 - -43 8.5 868.5MHz, SF9BW125, 4/5CR
2026-05-05 12:29:17 11.1875°C 108.75% 3.39V v2 No position 16805 ttn.v3 - -43 13.25 867.7MHz, SF9BW125, 4/5CR

Message count: 200
Node count: 1

Messages per node

Number of messages in list aboveNodes
200

Statistics per gateway

GatewayNumber of messagesNumber of nodesNodes
2001 (0.105km)

Filter by dataset